Time;durP1;ratioP1;P1;durP2;ratioP2;P2;SDS_P1;SDS_P2;PMS_P1;PMS_P2;Temp;Humidity;BMP_temperature;BMP_pressure;BME280_temperature;BME280_humidity;BME280_pressure;Samples;Min_cycle;Max_cycle;Signal;HPM_P1;HPM_P2
2022/02/14 00:01:11;;;;;;;0.47;0.47;;;;;;;;;;1785716;78;26952;-51
2022/02/14 00:03:38;;;;;;;1.85;0.50;;;;;;;;;;1803802;78;26776;-51
2022/02/14 00:06:05;;;;;;;0.40;0.40;;;;;;;;;;1807777;78;26289;-50
2022/02/14 00:08:32;;;;;;;0.50;0.50;;;;;;;;;;1808886;78;26350;-52
2022/02/14 00:11:00;;;;;;;0.40;0.40;;;;;;;;;;1808048;78;26356;-52
2022/02/14 00:13:27;;;;;;;0.40;0.40;;;;;;;;;;1827734;78;26822;-51
2022/02/14 00:15:54;;;;;;;0.70;0.70;;;;;;;;;;1840047;77;26616;-52
2022/02/14 00:18:22;;;;;;;0.50;0.50;;;;;;;;;;1821104;77;26252;-50
2022/02/14 00:20:49;;;;;;;0.37;0.37;;;;;;;;;;1839772;77;26315;-50
2022/02/14 00:23:16;;;;;;;0.50;0.50;;;;;;;;;;1843707;77;26283;-50
2022/02/14 00:25:43;;;;;;;0.40;0.40;;;;;;;;;;1839821;77;26264;-51
2022/02/14 00:28:11;;;;;;;0.40;0.40;;;;;;;;;;1836963;76;26441;-50
2022/02/14 00:30:38;;;;;;;0.50;0.50;;;;;;;;;;1836421;77;26299;-54
2022/02/14 00:33:06;;;;;;;0.40;0.40;;;;;;;;;;1839810;78;26252;-50
2022/02/14 00:35:33;;;;;;;0.35;0.35;;;;;;;;;;1839893;77;26201;-50
2022/02/14 00:38:01;;;;;;;0.30;0.30;;;;;;;;;;1840281;77;26373;-51
2022/02/14 00:40:28;;;;;;;0.30;0.30;;;;;;;;;;1840038;77;25837;-50
2022/02/14 00:42:55;;;;;;;1.30;0.50;;;;;;;;;;1838652;76;26252;-51
2022/02/14 00:45:23;;;;;;;0.57;0.40;;;;;;;;;;1831549;77;26280;-49
2022/02/14 00:47:50;;;;;;;0.50;0.50;;;;;;;;;;1839947;76;26264;-53
2022/02/14 00:50:17;;;;;;;0.35;0.35;;;;;;;;;;1839767;77;26351;-51
2022/02/14 00:52:44;;;;;;;0.30;0.30;;;;;;;;;;1839838;77;26271;-51
2022/02/14 00:55:13;;;;;;;0.98;0.35;;;;;;;;;;1837399;78;26205;-50
2022/02/14 00:57:40;;;;;;;0.30;0.30;;;;;;;;;;1835947;78;25690;-53
2022/02/14 01:00:09;;;;;;;0.40;0.40;;;;;;;;;;1840101;77;26322;-50
2022/02/14 01:02:37;;;;;;;0.40;0.40;;;;;;;;;;1840578;77;26310;-51
2022/02/14 01:05:05;;;;;;;0.40;0.40;;;;;;;;;;1844894;76;25626;-50
2022/02/14 01:07:33;;;;;;;0.65;0.40;;;;;;;;;;1846642;76;26703;-52
2022/02/14 01:10:00;;;;;;;0.72;0.40;;;;;;;;;;1797815;79;26366;-51
2022/02/14 01:12:28;;;;;;;0.47;0.47;;;;;;;;;;1794408;78;26232;-52
2022/02/14 01:14:56;;;;;;;0.60;0.40;;;;;;;;;;1797881;78;26288;-52
2022/02/14 01:17:23;;;;;;;0.80;0.30;;;;;;;;;;1798070;78;26304;-50
2022/02/14 01:19:50;;;;;;;1.10;0.40;;;;;;;;;;1796843;78;26293;-53
2022/02/14 01:22:18;;;;;;;0.45;0.30;;;;;;;;;;1797555;80;26354;-53
2022/02/14 01:24:45;;;;;;;0.80;0.42;;;;;;;;;;1798339;78;26347;-50
2022/02/14 01:27:12;;;;;;;0.30;0.30;;;;;;;;;;1798322;78;26247;-54
2022/02/14 01:29:39;;;;;;;0.40;0.40;;;;;;;;;;1796927;78;26284;-52
2022/02/14 01:32:07;;;;;;;0.40;0.40;;;;;;;;;;1797978;78;26288;-53
2022/02/14 01:34:35;;;;;;;0.45;0.45;;;;;;;;;;1798300;78;26787;-51
2022/02/14 01:37:02;;;;;;;0.30;0.30;;;;;;;;;;1798766;78;26215;-51
2022/02/14 01:39:29;;;;;;;0.35;0.35;;;;;;;;;;1798767;78;26296;-51
2022/02/14 01:41:56;;;;;;;0.50;0.50;;;;;;;;;;1773542;80;26321;-49
2022/02/14 01:44:34;;;;;;;0.40;0.40;;;;;;;;;;1801369;78;26320;-51
2022/02/14 01:47:02;;;;;;;0.40;0.40;;;;;;;;;;1790519;78;26754;-53
2022/02/14 01:49:29;;;;;;;0.40;0.40;;;;;;;;;;1784410;80;26272;-51
2022/02/14 01:51:57;;;;;;;0.30;0.30;;;;;;;;;;1769919;80;26270;-53
2022/02/14 01:54:24;;;;;;;0.40;0.40;;;;;;;;;;1797675;78;26275;-50
2022/02/14 01:56:51;;;;;;;0.50;0.50;;;;;;;;;;1798167;78;26324;-52
2022/02/14 01:59:19;;;;;;;0.30;0.30;;;;;;;;;;1792036;78;26345;-51
2022/02/14 02:01:46;;;;;;;0.40;0.40;;;;;;;;;;1789642;80;26351;-50
2022/02/14 02:04:14;;;;;;;0.30;0.30;;;;;;;;;;1804585;78;26393;-50
2022/02/14 02:06:42;;;;;;;0.40;0.40;;;;;;;;;;1805618;78;26331;-51
2022/02/14 02:09:09;;;;;;;0.30;0.30;;;;;;;;;;1800494;78;26774;-51
2022/02/14 02:14:22;;;;;;;0.30;0.30;;;;;;;;;;1745532;81;26351;-52
2022/02/14 02:16:50;;;;;;;0.70;0.50;;;;;;;;;;1789981;78;26343;-50
2022/02/14 02:19:18;;;;;;;0.60;0.37;;;;;;;;;;1810707;78;26351;-50
2022/02/14 02:21:45;;;;;;;0.40;0.40;;;;;;;;;;1814195;78;26299;-52
2022/02/14 02:24:19;;;;;;;0.40;0.40;;;;;;;;;;1811564;78;26220;-50
2022/02/14 02:26:47;;;;;;;0.40;0.40;;;;;;;;;;1827111;77;26290;-50
2022/02/14 02:29:14;;;;;;;0.30;0.30;;;;;;;;;;1814018;77;25763;-51
2022/02/14 02:31:42;;;;;;;0.40;0.40;;;;;;;;;;1827882;77;26842;-50
2022/02/14 02:34:09;;;;;;;0.40;0.40;;;;;;;;;;1832896;77;26318;-50
2022/02/14 02:36:46;;;;;;;0.40;0.40;;;;;;;;;;1833035;77;26346;-51
2022/02/14 02:39:13;;;;;;;0.28;0.28;;;;;;;;;;1832788;77;26898;-49
2022/02/14 02:41:41;;;;;;;0.50;0.50;;;;;;;;;;1832468;77;26784;-50
2022/02/14 02:44:12;;;;;;;0.40;0.40;;;;;;;;;;1832759;77;26272;-50
2022/02/14 02:46:39;;;;;;;0.40;0.40;;;;;;;;;;1832861;77;26332;-50
2022/02/14 02:49:14;;;;;;;0.37;0.37;;;;;;;;;;1832836;77;26258;-52
2022/02/14 02:51:43;;;;;;;0.35;0.35;;;;;;;;;;1832965;77;26322;-50
2022/02/14 02:54:11;;;;;;;0.30;0.30;;;;;;;;;;1832976;77;26372;-52
2022/02/14 02:56:39;;;;;;;0.30;0.30;;;;;;;;;;1833128;77;26323;-51
2022/02/14 02:59:11;;;;;;;0.28;0.28;;;;;;;;;;1821724;77;26275;-54
2022/02/14 03:01:37;;;;;;;0.40;0.40;;;;;;;;;;1838728;77;26276;-50
2022/02/14 03:04:05;;;;;;;0.40;0.40;;;;;;;;;;1838446;76;26300;-53
2022/02/14 03:06:33;;;;;;;0.50;0.50;;;;;;;;;;1835612;76;26264;-53
2022/02/14 03:09:00;;;;;;;0.50;0.50;;;;;;;;;;1834796;76;26294;-53
2022/02/14 03:11:28;;;;;;;0.37;0.37;;;;;;;;;;1840790;76;26703;-53
2022/02/14 03:13:55;;;;;;;0.30;0.30;;;;;;;;;;1845760;76;26373;-50
2022/02/14 03:16:23;;;;;;;0.30;0.30;;;;;;;;;;1840662;76;26291;-50
2022/02/14 03:18:50;;;;;;;0.37;0.30;;;;;;;;;;1838598;76;26275;-50
2022/02/14 03:21:22;;;;;;;0.30;0.30;;;;;;;;;;1840532;77;26315;-51
2022/02/14 03:23:51;;;;;;;1.45;0.40;;;;;;;;;;1847125;76;26349;-53
2022/02/14 03:26:19;;;;;;;0.42;0.42;;;;;;;;;;1836726;76;26754;-50
2022/02/14 03:28:47;;;;;;;0.40;0.40;;;;;;;;;;1837342;76;26256;-50
2022/02/14 03:31:15;;;;;;;0.50;0.50;;;;;;;;;;1843505;76;26337;-49
2022/02/14 03:33:43;;;;;;;0.47;0.30;;;;;;;;;;1846468;76;26330;-49
2022/02/14 03:36:12;;;;;;;0.30;0.30;;;;;;;;;;1833083;76;26526;-54
2022/02/14 03:38:40;;;;;;;1.35;0.50;;;;;;;;;;1847026;76;26284;-50
2022/02/14 03:41:07;;;;;;;0.30;0.30;;;;;;;;;;1846758;76;27077;-54
2022/02/14 03:43:34;;;;;;;0.30;0.30;;;;;;;;;;1842946;76;26297;-54
2022/02/14 03:46:02;;;;;;;0.50;0.50;;;;;;;;;;1845615;76;26793;-52
2022/02/14 03:48:29;;;;;;;0.47;0.47;;;;;;;;;;1836535;76;26307;-52
2022/02/14 03:50:57;;;;;;;0.30;0.30;;;;;;;;;;1837006;76;26325;-51
2022/02/14 03:53:25;;;;;;;0.37;0.37;;;;;;;;;;1846157;76;26695;-53
2022/02/14 03:55:52;;;;;;;0.30;0.30;;;;;;;;;;1842953;76;26323;-53
2022/02/14 03:58:20;;;;;;;0.82;0.55;;;;;;;;;;1846950;76;26279;-54
2022/02/14 04:00:47;;;;;;;0.50;0.50;;;;;;;;;;1851497;77;26323;-51
2022/02/14 04:03:15;;;;;;;0.35;0.35;;;;;;;;;;1842635;76;26757;-50
2022/02/14 04:05:42;;;;;;;0.35;0.35;;;;;;;;;;1833119;78;26710;-55
2022/02/14 04:08:09;;;;;;;0.30;0.30;;;;;;;;;;1834761;76;26275;-52
2022/02/14 04:10:37;;;;;;;0.50;0.50;;;;;;;;;;1827832;76;26261;-50
2022/02/14 04:13:04;;;;;;;0.42;0.42;;;;;;;;;;1846088;77;26194;-53
2022/02/14 04:15:31;;;;;;;0.45;0.45;;;;;;;;;;1845021;77;26260;-51
2022/02/14 04:17:59;;;;;;;0.50;0.50;;;;;;;;;;1836244;76;26716;-51
2022/02/14 04:20:26;;;;;;;0.40;0.40;;;;;;;;;;1846189;77;26288;-51
2022/02/14 04:22:54;;;;;;;0.40;0.40;;;;;;;;;;1843001;76;26257;-53
2022/02/14 04:25:21;;;;;;;0.57;0.57;;;;;;;;;;1839966;76;26649;-51
2022/02/14 04:27:49;;;;;;;0.47;0.47;;;;;;;;;;1845740;76;26192;-51
2022/02/14 04:30:16;;;;;;;0.40;0.40;;;;;;;;;;1843922;77;26576;-51
2022/02/14 04:32:43;;;;;;;0.40;0.40;;;;;;;;;;1838201;76;26756;-51
2022/02/14 04:35:11;;;;;;;0.40;0.40;;;;;;;;;;1839763;76;26303;-54
2022/02/14 04:37:39;;;;;;;0.40;0.40;;;;;;;;;;1841200;77;26652;-50
2022/02/14 04:40:07;;;;;;;0.40;0.40;;;;;;;;;;1846281;77;26684;-53
2022/02/14 04:42:34;;;;;;;1.40;0.50;;;;;;;;;;1846504;78;26731;-51
2022/02/14 04:45:01;;;;;;;0.50;0.50;;;;;;;;;;1840053;76;26710;-50
2022/02/14 04:47:28;;;;;;;0.50;0.50;;;;;;;;;;1846262;76;26691;-54
2022/02/14 04:49:56;;;;;;;0.55;0.55;;;;;;;;;;1840351;76;26282;-54
2022/02/14 04:52:23;;;;;;;0.50;0.50;;;;;;;;;;1835864;77;26225;-52
2022/02/14 04:54:51;;;;;;;0.60;0.60;;;;;;;;;;1846372;77;26256;-51
2022/02/14 04:57:18;;;;;;;0.50;0.50;;;;;;;;;;1846176;76;26999;-50
2022/02/14 04:59:45;;;;;;;0.50;0.50;;;;;;;;;;1837226;76;26333;-51
2022/02/14 05:02:13;;;;;;;0.35;0.35;;;;;;;;;;1842621;76;26358;-50
2022/02/14 05:04:40;;;;;;;0.40;0.40;;;;;;;;;;1840889;76;26299;-51
2022/02/14 05:07:07;;;;;;;0.42;0.42;;;;;;;;;;1843881;76;26632;-51
2022/02/14 05:09:34;;;;;;;0.40;0.40;;;;;;;;;;1856632;76;26781;-52
2022/02/14 05:12:02;;;;;;;0.50;0.50;;;;;;;;;;1856869;76;26248;-52
2022/02/14 05:14:29;;;;;;;0.40;0.40;;;;;;;;;;1850825;76;26271;-51
2022/02/14 05:16:56;;;;;;;0.40;0.40;;;;;;;;;;1858410;77;26789;-50
2022/02/14 05:19:24;;;;;;;0.45;0.45;;;;;;;;;;1858852;76;26572;-50
2022/02/14 05:21:51;;;;;;;0.50;0.50;;;;;;;;;;1847109;77;26799;-50
2022/02/14 05:24:18;;;;;;;0.50;0.50;;;;;;;;;;1858847;76;26270;-50
2022/02/14 05:26:45;;;;;;;0.50;0.50;;;;;;;;;;1854602;76;26263;-52
2022/02/14 05:29:13;;;;;;;0.60;0.60;;;;;;;;;;1846717;76;26251;-51
2022/02/14 05:31:40;;;;;;;0.62;0.62;;;;;;;;;;1827958;76;26635;-50
2022/02/14 05:34:07;;;;;;;0.70;0.70;;;;;;;;;;1854022;76;26287;-51
2022/02/14 05:36:35;;;;;;;0.78;0.78;;;;;;;;;;1858733;76;26247;-53
2022/02/14 05:39:03;;;;;;;1.50;1.00;;;;;;;;;;1858674;76;26849;-52
2022/02/14 05:41:31;;;;;;;1.60;1.10;;;;;;;;;;1857787;76;26277;-51
2022/02/14 05:44:01;;;;;;;2.00;1.10;;;;;;;;;;1856204;76;26286;-50
2022/02/14 05:46:28;;;;;;;3.72;1.12;;;;;;;;;;1840363;76;26296;-54
2022/02/14 05:48:55;;;;;;;1.27;1.10;;;;;;;;;;1844298;78;26289;-53
2022/02/14 05:51:23;;;;;;;3.00;1.20;;;;;;;;;;1858261;77;26288;-53
2022/02/14 05:53:50;;;;;;;2.95;1.42;;;;;;;;;;1857923;77;26880;-52
2022/02/14 05:56:18;;;;;;;3.20;1.40;;;;;;;;;;1842398;77;26803;-55
2022/02/14 05:58:45;;;;;;;3.15;1.35;;;;;;;;;;1854203;76;26267;-54
2022/02/14 06:01:12;;;;;;;2.02;1.40;;;;;;;;;;1856185;76;26357;-52
2022/02/14 06:03:40;;;;;;;4.00;1.67;;;;;;;;;;1856281;76;26208;-52
2022/02/14 06:06:07;;;;;;;4.53;1.60;;;;;;;;;;1846039;76;26746;-52
2022/02/14 06:08:34;;;;;;;2.02;1.40;;;;;;;;;;1839372;76;26342;-54
2022/02/14 06:11:02;;;;;;;3.25;1.50;;;;;;;;;;1838613;76;26269;-53
2022/02/14 06:13:30;;;;;;;4.85;1.50;;;;;;;;;;1841405;76;26327;-51
2022/02/14 06:15:58;;;;;;;3.60;1.40;;;;;;;;;;1840459;76;26259;-50
2022/02/14 06:18:25;;;;;;;3.05;1.50;;;;;;;;;;1841701;76;26317;-53
2022/02/14 06:20:53;;;;;;;2.77;1.40;;;;;;;;;;1839441;76;26300;-50
2022/02/14 06:23:20;;;;;;;1.80;1.25;;;;;;;;;;1835548;76;26291;-51
2022/02/14 06:25:47;;;;;;;2.02;1.30;;;;;;;;;;1834626;76;26715;-51
2022/02/14 06:28:15;;;;;;;3.55;1.25;;;;;;;;;;1837431;76;26257;-51
2022/02/14 06:30:45;;;;;;;4.55;1.40;;;;;;;;;;1846299;77;26342;-50
2022/02/14 06:33:11;;;;;;;4.03;1.20;;;;;;;;;;1829499;76;26267;-51
2022/02/14 06:35:39;;;;;;;1.60;1.20;;;;;;;;;;1845632;76;26272;-51
2022/02/14 06:38:06;;;;;;;6.83;1.20;;;;;;;;;;1845497;76;26256;-51
2022/02/14 06:40:33;;;;;;;2.80;1.40;;;;;;;;;;1845396;76;27536;-51
2022/02/14 06:43:01;;;;;;;3.85;1.42;;;;;;;;;;1842475;76;26235;-54
2022/02/14 06:45:28;;;;;;;6.50;1.40;;;;;;;;;;1842026;76;26350;-51
2022/02/14 06:47:55;;;;;;;4.75;1.20;;;;;;;;;;1845218;76;26720;-53
2022/02/14 06:50:23;;;;;;;2.72;1.20;;;;;;;;;;1828388;76;26731;-50
2022/02/14 06:52:50;;;;;;;1.85;1.17;;;;;;;;;;1833484;76;26303;-50
2022/02/14 06:55:17;;;;;;;3.62;1.25;;;;;;;;;;1838061;76;26321;-55
2022/02/14 06:57:45;;;;;;;5.00;1.10;;;;;;;;;;1837206;76;26276;-53
2022/02/14 07:00:14;;;;;;;2.33;1.25;;;;;;;;;;1841651;76;26598;-50
2022/02/14 07:02:42;;;;;;;2.08;1.20;;;;;;;;;;1834299;76;26425;-51
2022/02/14 07:05:16;;;;;;;3.00;1.20;;;;;;;;;;1839308;76;27466;-52
2022/02/14 07:07:39;;;;;;;4.20;1.10;;;;;;;;;;1837423;76;26283;-49
2022/02/14 07:10:07;;;;;;;2.35;1.37;;;;;;;;;;1830420;76;26303;-53
2022/02/14 07:12:34;;;;;;;6.12;1.27;;;;;;;;;;1845787;76;26260;-51
2022/02/14 07:15:03;;;;;;;3.50;1.20;;;;;;;;;;1842249;76;26337;-53
2022/02/14 07:17:32;;;;;;;1.95;1.30;;;;;;;;;;1837013;76;26260;-52
2022/02/14 07:20:00;;;;;;;2.40;1.02;;;;;;;;;;1842509;76;26221;-52
2022/02/14 07:22:27;;;;;;;3.55;1.05;;;;;;;;;;1846019;77;26794;-52
2022/02/14 07:24:54;;;;;;;1.98;0.93;;;;;;;;;;1843507;76;25764;-52
2022/02/14 07:27:21;;;;;;;1.12;1.00;;;;;;;;;;1835712;76;26793;-50
2022/02/14 07:29:49;;;;;;;2.50;1.00;;;;;;;;;;1846190;77;26286;-51
2022/02/14 07:32:16;;;;;;;0.90;0.90;;;;;;;;;;1845817;76;26256;-51
2022/02/14 07:34:43;;;;;;;1.45;0.95;;;;;;;;;;1845270;76;26692;-50
2022/02/14 07:37:10;;;;;;;2.72;1.00;;;;;;;;;;1843138;76;26633;-51
2022/02/14 07:39:38;;;;;;;3.27;1.00;;;;;;;;;;1845723;77;26719;-49
2022/02/14 07:42:05;;;;;;;2.42;1.25;;;;;;;;;;1842849;76;26225;-48
2022/02/14 07:44:32;;;;;;;1.10;1.00;;;;;;;;;;1827802;78;26411;-51
2022/02/14 07:46:59;;;;;;;4.17;1.00;;;;;;;;;;1836873;76;26207;-50
2022/02/14 07:49:27;;;;;;;0.93;0.93;;;;;;;;;;1828145;76;26212;-52
2022/02/14 07:51:54;;;;;;;3.12;1.00;;;;;;;;;;1840204;76;26343;-51
2022/02/14 07:54:21;;;;;;;1.27;1.10;;;;;;;;;;1807845;77;26372;-52
2022/02/14 07:56:49;;;;;;;1.98;1.00;;;;;;;;;;1836895;76;26287;-51
2022/02/14 07:59:16;;;;;;;0.80;0.80;;;;;;;;;;1842229;76;26222;-56
2022/02/14 08:01:43;;;;;;;2.25;1.10;;;;;;;;;;1843074;76;26275;-59
2022/02/14 08:04:10;;;;;;;3.77;0.85;;;;;;;;;;1845565;76;26327;-55
2022/02/14 08:06:38;;;;;;;1.05;0.90;;;;;;;;;;1843206;76;26412;-53
2022/02/14 08:09:06;;;;;;;1.32;0.88;;;;;;;;;;1854550;76;26342;-55
2022/02/14 08:11:34;;;;;;;1.05;0.90;;;;;;;;;;1855713;76;26288;-53
2022/02/14 08:14:01;;;;;;;2.15;1.00;;;;;;;;;;1853274;76;26303;-56
2022/02/14 08:16:30;;;;;;;0.98;0.98;;;;;;;;;;1852844;76;26656;-57
2022/02/14 08:18:59;;;;;;;7.20;1.00;;;;;;;;;;1855796;76;26292;-52
2022/02/14 08:21:27;;;;;;;0.93;0.80;;;;;;;;;;1857391;76;26276;-52
2022/02/14 08:23:54;;;;;;;2.67;0.90;;;;;;;;;;1851722;76;26294;-57
2022/02/14 08:26:22;;;;;;;0.93;0.93;;;;;;;;;;1851327;76;26695;-58
2022/02/14 08:28:49;;;;;;;2.95;0.80;;;;;;;;;;1857400;77;26337;-55
2022/02/14 08:31:17;;;;;;;0.80;0.80;;;;;;;;;;1857952;77;26207;-57
2022/02/14 08:33:44;;;;;;;1.70;0.93;;;;;;;;;;1858256;76;26730;-56
2022/02/14 08:36:11;;;;;;;2.27;0.75;;;;;;;;;;1857184;77;26366;-54
2022/02/14 08:38:39;;;;;;;0.80;0.80;;;;;;;;;;1858797;76;25812;-52
2022/02/14 08:41:06;;;;;;;0.70;0.70;;;;;;;;;;1858056;76;26776;-51
2022/02/14 08:43:33;;;;;;;2.67;0.90;;;;;;;;;;1858479;76;26268;-57
2022/02/14 08:46:01;;;;;;;0.85;0.85;;;;;;;;;;1858253;76;26366;-53
2022/02/14 08:48:28;;;;;;;1.42;0.70;;;;;;;;;;1858111;77;26322;-55
2022/02/14 08:50:56;;;;;;;0.93;0.93;;;;;;;;;;1857142;76;26762;-58
2022/02/14 08:53:24;;;;;;;0.80;0.80;;;;;;;;;;1854414;76;26696;-52
2022/02/14 08:55:52;;;;;;;1.65;0.80;;;;;;;;;;1854408;76;26295;-50
2022/02/14 08:58:19;;;;;;;1.00;1.00;;;;;;;;;;1850966;77;26336;-55
2022/02/14 09:00:48;;;;;;;1.45;0.75;;;;;;;;;;1860947;76;26296;-55
2022/02/14 09:03:15;;;;;;;0.78;0.78;;;;;;;;;;1851888;76;26310;-55
2022/02/14 09:05:43;;;;;;;1.75;0.80;;;;;;;;;;1852961;76;26376;-52
2022/02/14 09:08:10;;;;;;;1.50;0.90;;;;;;;;;;1858908;76;26220;-57
2022/02/14 09:10:37;;;;;;;0.80;0.80;;;;;;;;;;1813012;78;26328;-58
2022/02/14 09:13:04;;;;;;;1.57;0.80;;;;;;;;;;1813010;78;26314;-58
2022/02/14 09:15:32;;;;;;;0.80;0.80;;;;;;;;;;1780914;79;26853;-56
2022/02/14 09:17:59;;;;;;;0.80;0.80;;;;;;;;;;1791248;79;26279;-57
2022/02/14 09:20:26;;;;;;;0.80;0.80;;;;;;;;;;1786882;78;26976;-49
2022/02/14 09:22:54;;;;;;;0.80;0.80;;;;;;;;;;1820782;78;26755;-52
2022/02/14 09:25:22;;;;;;;0.80;0.80;;;;;;;;;;1812542;78;26324;-58
2022/02/14 09:27:49;;;;;;;1.15;0.90;;;;;;;;;;1812689;78;26376;-59
2022/02/14 09:30:17;;;;;;;0.72;0.72;;;;;;;;;;1812669;78;26353;-50
2022/02/14 09:32:44;;;;;;;0.80;0.80;;;;;;;;;;1812526;78;26564;-55
2022/02/14 09:35:12;;;;;;;0.80;0.80;;;;;;;;;;1812096;78;26221;-57
2022/02/14 09:37:39;;;;;;;1.10;1.00;;;;;;;;;;1815081;78;27257;-52
2022/02/14 09:40:07;;;;;;;0.88;0.88;;;;;;;;;;1805338;78;26378;-53
2022/02/14 09:42:35;;;;;;;0.78;0.78;;;;;;;;;;1810264;78;26387;-56
2022/02/14 09:45:03;;;;;;;1.00;1.00;;;;;;;;;;1809970;78;26299;-54
2022/02/14 09:47:30;;;;;;;1.30;0.80;;;;;;;;;;1810275;78;26748;-55
2022/02/14 09:49:57;;;;;;;0.82;0.82;;;;;;;;;;1801561;78;27344;-55
2022/02/14 09:52:24;;;;;;;0.90;0.90;;;;;;;;;;1811718;78;27183;-55
2022/02/14 09:54:52;;;;;;;2.17;1.00;;;;;;;;;;1802676;78;26221;-49
2022/02/14 09:57:19;;;;;;;0.80;0.80;;;;;;;;;;1807590;78;26310;-54
2022/02/14 09:59:46;;;;;;;0.85;0.68;;;;;;;;;;1817221;78;26212;-50
2022/02/14 10:02:23;;;;;;;0.85;0.85;;;;;;;;;;1811526;78;26282;-60
2022/02/14 10:05:10;;;;;;;0.88;0.88;;;;;;;;;;1789467;79;26730;-53
2022/02/14 10:07:38;;;;;;;0.90;0.90;;;;;;;;;;1811182;78;26380;-53
2022/02/14 10:10:09;;;;;;;1.05;0.93;;;;;;;;;;1825269;77;26291;-55
2022/02/14 10:12:41;;;;;;;0.90;0.90;;;;;;;;;;1818340;79;26233;-59
2022/02/14 10:15:09;;;;;;;0.72;0.72;;;;;;;;;;1824541;77;26259;-57
2022/02/14 10:17:41;;;;;;;0.90;0.90;;;;;;;;;;1836188;77;26697;-55
2022/02/14 10:20:09;;;;;;;0.95;0.70;;;;;;;;;;1811915;78;26681;-60
2022/02/14 10:22:53;;;;;;;0.80;0.80;;;;;;;;;;1824735;77;26369;-55
2022/02/14 10:25:37;;;;;;;0.90;0.90;;;;;;;;;;1819065;76;26269;-51
2022/02/14 10:28:15;;;;;;;0.90;0.80;;;;;;;;;;1839159;77;26292;-58
2022/02/14 10:31:02;;;;;;;0.88;0.88;;;;;;;;;;1830557;77;26772;-58
2022/02/14 10:33:48;;;;;;;7.53;0.88;;;;;;;;;;1818947;78;26299;-58
2022/02/14 10:36:32;;;;;;;1.12;0.80;;;;;;;;;;1833196;77;26762;-57
2022/02/14 10:39:13;;;;;;;0.90;0.90;;;;;;;;;;1834052;77;26361;-57
2022/02/14 10:41:42;;;;;;;0.80;0.80;;;;;;;;;;1833676;77;26845;-62
2022/02/14 10:47:12;;;;;;;1.02;1.02;;;;;;;;;;1833762;77;26323;-54
2022/02/14 10:49:41;;;;;;;1.07;1.07;;;;;;;;;;1828964;76;26275;-55
2022/02/14 10:52:12;;;;;;;0.80;0.80;;;;;;;;;;1839833;77;26522;-57
2022/02/14 10:54:41;;;;;;;6.55;0.80;;;;;;;;;;1835250;77;26695;-56
2022/02/14 10:57:28;;;;;;;2.25;0.90;;;;;;;;;;1835591;76;26869;-55
2022/02/14 11:00:00;;;;;;;0.70;0.70;;;;;;;;;;1834040;76;26288;-52
2022/02/14 11:02:28;;;;;;;0.98;0.98;;;;;;;;;;1845705;76;26288;-58
2022/02/14 11:04:56;;;;;;;0.80;0.80;;;;;;;;;;1841298;77;26329;-51
2022/02/14 11:07:24;;;;;;;0.90;0.90;;;;;;;;;;1840813;76;26327;-57
2022/02/14 11:09:52;;;;;;;1.50;0.70;;;;;;;;;;1841043;76;26269;-54
2022/02/14 11:12:21;;;;;;;0.93;0.93;;;;;;;;;;1841778;76;26323;-56
2022/02/14 11:14:56;;;;;;;0.70;0.70;;;;;;;;;;1835238;76;26342;-56
2022/02/14 11:17:25;;;;;;;0.70;0.70;;;;;;;;;;1839458;76;26308;-56
2022/02/14 11:19:54;;;;;;;1.10;1.00;;;;;;;;;;1841481;76;26818;-56
2022/02/14 11:22:23;;;;;;;0.80;0.80;;;;;;;;;;1841111;76;26397;-56
2022/02/14 11:24:51;;;;;;;1.15;0.80;;;;;;;;;;1838060;76;26798;-52
2022/02/14 11:27:21;;;;;;;3.45;0.90;;;;;;;;;;1843523;76;26755;-54
2022/02/14 11:29:51;;;;;;;0.93;0.90;;;;;;;;;;1841114;76;26334;-60
2022/02/14 11:32:19;;;;;;;0.80;0.80;;;;;;;;;;1840176;76;25945;-58
2022/02/14 11:34:57;;;;;;;28.47;1.57;;;;;;;;;;1843698;76;26303;-56
2022/02/14 11:37:25;;;;;;;1.45;0.80;;;;;;;;;;1841563;76;26837;-58
2022/02/14 11:39:53;;;;;;;0.70;0.70;;;;;;;;;;1843793;76;26253;-56
2022/02/14 11:42:20;;;;;;;0.80;0.80;;;;;;;;;;1840744;76;26745;-54
2022/02/14 11:44:49;;;;;;;0.70;0.70;;;;;;;;;;1838178;76;26697;-57
2022/02/14 11:47:16;;;;;;;0.80;0.80;;;;;;;;;;1837926;76;26769;-56
2022/02/14 11:49:45;;;;;;;0.82;0.82;;;;;;;;;;1839570;76;26290;-56
2022/02/14 11:52:29;;;;;;;0.80;0.80;;;;;;;;;;1841098;76;26334;-58
2022/02/14 11:54:58;;;;;;;0.90;0.90;;;;;;;;;;1841171;76;26197;-53
2022/02/14 11:57:29;;;;;;;0.82;0.82;;;;;;;;;;1840832;76;26213;-53
2022/02/14 12:00:15;;;;;;;1.25;0.78;;;;;;;;;;1841962;76;26283;-56
2022/02/14 12:02:44;;;;;;;0.80;0.80;;;;;;;;;;1839699;76;26393;-55
2022/02/14 12:05:13;;;;;;;0.80;0.80;;;;;;;;;;1841001;76;26652;-56
2022/02/14 12:07:41;;;;;;;0.80;0.80;;;;;;;;;;1842484;77;26841;-60
2022/02/14 12:10:19;;;;;;;0.80;0.80;;;;;;;;;;1843197;77;26837;-61
2022/02/14 12:12:57;;;;;;;0.80;0.80;;;;;;;;;;1825598;78;26449;-60
2022/02/14 12:21:05;;;;;;;0.88;0.88;;;;;;;;;;1851376;76;26763;-54
2022/02/14 12:23:36;;;;;;;0.80;0.80;;;;;;;;;;1849661;76;26767;-58
2022/02/14 12:26:08;;;;;;;4.30;0.90;;;;;;;;;;1852341;76;26396;-59
2022/02/14 12:28:37;;;;;;;0.88;0.88;;;;;;;;;;1849415;76;26342;-49
2022/02/14 12:31:05;;;;;;;0.90;0.90;;;;;;;;;;1851150;76;26004;-48
2022/02/14 12:33:33;;;;;;;0.90;0.90;;;;;;;;;;1853712;76;26212;-47
2022/02/14 12:36:01;;;;;;;0.80;0.80;;;;;;;;;;1845145;76;26656;-48
2022/02/14 12:38:31;;;;;;;0.90;0.90;;;;;;;;;;1852221;76;26369;-49
2022/02/14 12:40:59;;;;;;;0.90;0.90;;;;;;;;;;1849360;76;26774;-54
2022/02/14 12:43:28;;;;;;;0.90;0.90;;;;;;;;;;1852392;76;26271;-56
2022/02/14 12:45:57;;;;;;;3.92;1.00;;;;;;;;;;1853582;76;26364;-53
2022/02/14 12:48:38;;;;;;;1.07;1.00;;;;;;;;;;1851575;77;26310;-57
2022/02/14 12:51:13;;;;;;;3.90;0.95;;;;;;;;;;1848709;76;26291;-57
2022/02/14 12:53:45;;;;;;;0.80;0.80;;;;;;;;;;1854107;76;26346;-51
2022/02/14 12:56:20;;;;;;;0.80;0.80;;;;;;;;;;1851471;76;26433;-52
2022/02/14 12:58:52;;;;;;;1.67;0.82;;;;;;;;;;1847608;76;26251;-51
2022/02/14 13:01:20;;;;;;;1.75;0.82;;;;;;;;;;1838301;76;26335;-54
2022/02/14 13:03:55;;;;;;;2.27;0.90;;;;;;;;;;1858808;76;26276;-52
2022/02/14 13:06:42;;;;;;;4.22;0.90;;;;;;;;;;1858427;76;26275;-54
2022/02/14 13:09:23;;;;;;;1.35;0.88;;;;;;;;;;1849950;76;26251;-52
2022/02/14 13:11:51;;;;;;;0.82;0.82;;;;;;;;;;1847900;77;26325;-53
2022/02/14 13:14:29;;;;;;;1.90;1.00;;;;;;;;;;1854749;77;26718;-55
2022/02/14 13:16:57;;;;;;;0.88;0.88;;;;;;;;;;1853497;76;26282;-59
2022/02/14 13:19:25;;;;;;;1.00;1.00;;;;;;;;;;1839813;76;26297;-52
2022/02/14 13:21:52;;;;;;;1.22;0.90;;;;;;;;;;1858313;76;26262;-53
2022/02/14 13:24:20;;;;;;;0.90;0.90;;;;;;;;;;1854826;76;26298;-52
2022/02/14 13:26:48;;;;;;;0.90;0.90;;;;;;;;;;1857675;76;26298;-54
2022/02/14 13:29:17;;;;;;;0.80;0.80;;;;;;;;;;1855441;76;26248;-58
2022/02/14 13:31:45;;;;;;;1.12;1.00;;;;;;;;;;1846088;77;26295;-58
2022/02/14 13:34:14;;;;;;;0.90;0.90;;;;;;;;;;1855826;76;26774;-55
2022/02/14 13:36:59;;;;;;;0.70;0.70;;;;;;;;;;1854127;76;26306;-53
2022/02/14 13:39:27;;;;;;;1.35;0.95;;;;;;;;;;1858677;76;26276;-56
2022/02/14 13:41:55;;;;;;;0.80;0.80;;;;;;;;;;1858149;76;26830;-58
2022/02/14 13:44:23;;;;;;;0.90;0.90;;;;;;;;;;1857744;76;26308;-57
2022/02/14 13:46:50;;;;;;;0.72;0.72;;;;;;;;;;1858337;76;26798;-53
2022/02/14 13:49:37;;;;;;;1.67;1.00;;;;;;;;;;1838550;76;26364;-55
2022/02/14 13:52:04;;;;;;;1.00;1.00;;;;;;;;;;1828039;78;26754;-55
2022/02/14 13:54:32;;;;;;;1.00;1.00;;;;;;;;;;1828104;78;26314;-48
2022/02/14 13:57:00;;;;;;;0.80;0.80;;;;;;;;;;1848931;77;26750;-50
2022/02/14 13:59:28;;;;;;;0.90;0.90;;;;;;;;;;1858800;76;26211;-52
2022/02/14 14:02:15;;;;;;;0.78;0.78;;;;;;;;;;1813147;79;26275;-56
2022/02/14 14:04:42;;;;;;;0.90;0.90;;;;;;;;;;1813358;78;26358;-56
2022/02/14 14:07:10;;;;;;;3.02;1.00;;;;;;;;;;1802012;79;26359;-50
2022/02/14 14:09:45;;;;;;;0.90;0.90;;;;;;;;;;1805390;78;26334;-50
2022/02/14 14:12:14;;;;;;;1.20;1.10;;;;;;;;;;1797084;78;26716;-52
2022/02/14 14:14:42;;;;;;;1.30;1.30;;;;;;;;;;1765279;80;26805;-56
2022/02/14 14:17:11;;;;;;;1.02;1.02;;;;;;;;;;1798077;78;26300;-51
2022/02/14 14:19:49;;;;;;;0.85;0.85;;;;;;;;;;1785497;78;26366;-53
2022/02/14 14:22:18;;;;;;;1.07;0.90;;;;;;;;;;1791417;80;26292;-48
2022/02/14 14:24:47;;;;;;;0.80;0.80;;;;;;;;;;1796898;78;26374;-49
2022/02/14 14:27:14;;;;;;;0.95;0.95;;;;;;;;;;1793221;78;26299;-49
2022/02/14 14:29:42;;;;;;;1.02;1.02;;;;;;;;;;1788059;78;25749;-48
2022/02/14 14:32:11;;;;;;;0.90;0.90;;;;;;;;;;1795497;78;26297;-49
2022/02/14 14:34:39;;;;;;;0.90;0.90;;;;;;;;;;1797040;80;26363;-48
2022/02/14 14:37:07;;;;;;;0.95;0.95;;;;;;;;;;1794139;78;26281;-49
2022/02/14 14:39:37;;;;;;;0.95;0.95;;;;;;;;;;1796320;80;26798;-49
2022/02/14 14:42:05;;;;;;;0.98;0.98;;;;;;;;;;1797268;78;26424;-49
2022/02/14 14:44:33;;;;;;;1.30;0.93;;;;;;;;;;1796393;78;26779;-50
2022/02/14 14:47:02;;;;;;;0.90;0.90;;;;;;;;;;1797854;78;26296;-48
2022/02/14 14:49:29;;;;;;;0.88;0.80;;;;;;;;;;1798181;78;26387;-49
2022/02/14 14:51:57;;;;;;;0.80;0.80;;;;;;;;;;1797879;78;26287;-48
2022/02/14 14:54:29;;;;;;;1.10;1.10;;;;;;;;;;1797422;79;26288;-48
2022/02/14 14:56:53;;;;;;;1.00;1.00;;;;;;;;;;1786389;78;26330;-47
2022/02/14 14:59:20;;;;;;;0.88;0.88;;;;;;;;;;1764016;80;26289;-49
2022/02/14 15:01:47;;;;;;;0.90;0.90;;;;;;;;;;1794157;78;26272;-48
2022/02/14 15:04:14;;;;;;;1.10;1.00;;;;;;;;;;1768620;80;26247;-49